Bookmark and Share
Track history (hours):
 

Jette Viking Hv77

Last reported at 2014-Apr-16 08:03 UTC. Time now 2014-Apr-16 10:37 UTC.
Position N 57°30' E 010°30'.

Length 16 m.

Type: Fishing. MMSI: 220046000.

NotesDate/timePositionNaut miles runAvg speedWind from/ knotsBaromVisibWave heightAir tempDewpointWater temp
2014-Apr-16 08:03N 57°30' E 010°30'0 0.0
2014-Apr-16 07:31N 57°30' E 010°30'0 0.0
2014-Apr-16 06:33N 57°30' E 010°30'0 0.0
2014-Apr-16 05:33N 57°30' E 010°30'0 0.0
2014-Apr-16 04:27N 57°30' E 010°30'0 0.0
2014-Apr-16 03:29N 57°30' E 010°30'0 0.0
2014-Apr-16 02:28N 57°30' E 010°30'0 0.0
2014-Apr-16 01:33N 57°30' E 010°30'0 0.0
2014-Apr-16 00:33N 57°30' E 010°30'0 0.0
2014-Apr-15 23:33N 57°30' E 010°30'0 0.0
2014-Apr-15 22:33N 57°30' E 010°30'0 0.0
2014-Apr-15 21:28N 57°30' E 010°30'0 0.0
2014-Apr-15 01:31N 57°30' E 010°30'0 0.0
2014-Apr-15 00:33N 57°30' E 010°30'0 0.0
2014-Apr-14 23:30N 57°30' E 010°30'  
2014-Apr-12 00:30N 57°34' E 010°47'2 2.5
2014-Apr-11 23:33N 57°36' E 010°46'1 1.0
2014-Apr-11 22:34N 57°37' E 010°46'3 2.6
2014-Apr-11 21:33N 57°34' E 010°47'3 2.6
2014-Apr-11 20:33N 57°32' E 010°47'3 2.6
2014-Apr-11 19:32N 57°29' E 010°47'3 2.6
2014-Apr-11 18:29N 57°27' E 010°46'2 0.2
2014-Apr-11 04:31N 57°24' E 010°46'5 2.3
2014-Apr-11 02:07N 57°30' E 010°49'2 2.6
2014-Apr-11 01:27N 57°31' E 010°49'2 2.5
2014-Apr-11 00:33N 57°34' E 010°49'3 2.5
2014-Apr-10 23:33N 57°36' E 010°49'0 0.1
2014-Apr-10 22:33N 57°36' E 010°49'3 2.5
2014-Apr-10 21:33N 57°34' E 010°49'3 2.5
2014-Apr-10 20:33N 57°31' E 010°49'10 0.8
2014-Apr-10 07:25N 57°30' E 010°30'6 5.6
2014-Apr-10 06:19N 57°32' E 010°41'5 6.6
2014-Apr-10 05:33N 57°34' E 010°50'1 0.1
2014-Apr-10 00:31N 57°34' E 010°49'2 2.5
2014-Apr-09 23:33N 57°36' E 010°49'0 0.3
2014-Apr-09 22:33N 57°37' E 010°48'3 2.5
2014-Apr-09 21:33N 57°34' E 010°49'2 0.0
2014-Apr-08 02:14N 57°33' E 010°47'2 0.2
2014-Apr-07 19:08N 57°34' E 010°49'5 3.0
2014-Apr-07 17:33N 57°39' E 010°46'7 7.0
2014-Apr-07 16:33N 57°43' E 010°35'0 0.0
2014-Apr-07 15:33N 57°43' E 010°35'3 2.9
2014-Apr-07 14:33N 57°44' E 010°41'6 6.2
2014-Apr-07 13:33N 57°48' E 010°33'4 4.2
2014-Apr-07 12:33N 57°51' E 010°27'2 2.5
2014-Apr-07 11:33N 57°53' E 010°24'3 2.5
2014-Apr-07 10:33N 57°56' E 010°24'2 2.5
2014-Apr-07 09:33N 57°58' E 010°23'3 0.9
2014-Apr-07 06:08N 57°55' E 010°24'1 2.6
2014-Apr-07 05:33N 57°53' E 010°24'3 2.4
2014-Apr-07 04:24N 57°51' E 010°27'3 3.2
2014-Apr-07 03:33N 57°50' E 010°31'7 6.7
2014-Apr-07 02:33N 57°46' E 010°41'9 8.8
2014-Apr-07 01:33N 57°37' E 010°36'  

Dump ship's entire track history

sailing weather and tide predictions

Jette Viking Hv77 — 5QEP — position and weather